Time;durP1;ratioP1;P1;durP2;ratioP2;P2;SDS_P1;SDS_P2;PMS_P1;PMS_P2;Temp;Humidity;BMP_temperature;BMP_pressure;BME280_temperature;BME280_humidity;BME280_pressure;Samples;Min_cycle;Max_cycle;Signal;HPM_P1;HPM_P2
2022/03/10 00:00:02;;;;;;;15.85;9.43;;;5.90;57.00;;;;;;5055852;28;20051;-76
2022/03/10 00:02:28;;;;;;;13.50;9.80;;;6.00;56.70;;;;;;5054518;28;20073;-76
2022/03/10 00:04:53;;;;;;;12.40;9.23;;;6.00;56.80;;;;;;5054559;28;20084;-76
2022/03/10 00:07:19;;;;;;;16.00;9.82;;;6.00;57.10;;;;;;5054483;28;20040;-76
2022/03/10 00:09:44;;;;;;;13.90;9.18;;;6.00;56.90;;;;;;5054434;28;20044;-76
2022/03/10 00:12:10;;;;;;;15.68;9.25;;;5.90;57.10;;;;;;5054188;28;20040;-76
2022/03/10 00:14:35;;;;;;;14.55;9.23;;;5.90;57.00;;;;;;5054389;28;20032;-76
2022/03/10 00:17:02;;;;;;;11.30;8.90;;;5.90;57.30;;;;;;5054374;28;20079;-76
2022/03/10 00:19:27;;;;;;;13.13;9.35;;;5.90;57.70;;;;;;5054329;28;20041;-76
2022/03/10 00:21:53;;;;;;;14.10;9.60;;;5.90;57.10;;;;;;5054192;28;20033;-76
2022/03/10 00:24:18;;;;;;;13.30;9.68;;;5.90;57.10;;;;;;5054431;28;20063;-76
2022/03/10 00:26:44;;;;;;;18.45;9.45;;;5.90;57.10;;;;;;5054590;28;20397;-76
2022/03/10 00:29:10;;;;;;;14.13;8.88;;;5.80;57.50;;;;;;5054114;28;20040;-76
2022/03/10 00:31:36;;;;;;;12.32;9.70;;;5.90;57.60;;;;;;5054004;28;20123;-76
2022/03/10 00:34:02;;;;;;;13.05;9.02;;;5.80;58.00;;;;;;5037670;28;20072;-76
2022/03/10 00:36:28;;;;;;;13.38;9.73;;;5.80;58.10;;;;;;5054241;28;20040;-76
2022/03/10 00:38:54;;;;;;;13.65;8.95;;;5.80;58.40;;;;;;5053948;28;20090;-76
2022/03/10 00:41:20;;;;;;;21.95;10.88;;;5.80;58.00;;;;;;5053812;28;20052;-76
2022/03/10 00:43:45;;;;;;;14.00;9.45;;;5.80;58.00;;;;;;5053800;28;20045;-76
2022/03/10 00:46:11;;;;;;;16.25;9.30;;;5.80;57.90;;;;;;5053679;28;20083;-77
2022/03/10 00:48:37;;;;;;;13.73;9.85;;;5.80;57.60;;;;;;5053760;28;20036;-77
2022/03/10 00:51:03;;;;;;;15.52;10.13;;;5.80;57.60;;;;;;5053622;28;20044;-76
2022/03/10 00:53:29;;;;;;;13.20;9.43;;;5.80;57.70;;;;;;5053684;28;20071;-76
2022/03/10 00:55:55;;;;;;;15.77;9.18;;;5.80;57.70;;;;;;5037224;28;20075;-76
2022/03/10 00:58:20;;;;;;;14.95;10.68;;;5.70;57.70;;;;;;5036948;28;20487;-76
2022/03/10 01:00:46;;;;;;;15.90;9.57;;;5.70;57.70;;;;;;5053754;28;20044;-76
2022/03/10 01:03:12;;;;;;;13.88;10.18;;;5.70;58.10;;;;;;5053497;28;20037;-76
2022/03/10 01:05:37;;;;;;;13.90;10.25;;;5.70;58.30;;;;;;5053411;28;20040;-76
2022/03/10 01:08:03;;;;;;;13.82;9.82;;;5.60;58.10;;;;;;5053316;28;20070;-76
2022/03/10 01:10:29;;;;;;;14.15;9.85;;;5.60;58.00;;;;;;5053373;28;20105;-76
2022/03/10 01:12:55;;;;;;;17.67;10.60;;;5.60;58.40;;;;;;5052222;28;20086;-76
2022/03/10 01:15:26;;;;;;;14.32;10.18;;;5.60;58.30;;;;;;5053555;28;20037;-76
2022/03/10 01:17:52;;;;;;;15.85;10.57;;;5.60;58.60;;;;;;5053114;28;20040;-76
2022/03/10 01:20:19;;;;;;;15.32;9.98;;;5.50;58.80;;;;;;5053230;28;20036;-76
2022/03/10 01:22:46;;;;;;;15.65;10.20;;;5.50;59.00;;;;;;5053042;28;20036;-76
2022/03/10 01:25:11;;;;;;;16.23;10.35;;;5.50;59.60;;;;;;5053861;28;20102;-76
2022/03/10 01:27:37;;;;;;;16.80;10.55;;;5.40;59.90;;;;;;5052959;28;20501;-76
2022/03/10 01:30:04;;;;;;;15.65;10.88;;;5.30;60.10;;;;;;5052959;28;20033;-76
2022/03/10 01:32:29;;;;;;;15.82;10.43;;;5.30;60.20;;;;;;5052794;28;20493;-76
2022/03/10 01:34:55;;;;;;;16.77;10.30;;;5.20;60.50;;;;;;5052892;28;20048;-76
2022/03/10 01:37:21;;;;;;;15.88;10.23;;;5.20;60.00;;;;;;5053358;28;20045;-76
2022/03/10 01:39:47;;;;;;;16.80;10.45;;;5.20;60.50;;;;;;5052825;28;20519;-76
2022/03/10 01:42:13;;;;;;;13.32;10.05;;;5.10;60.40;;;;;;5052680;28;20048;-76
2022/03/10 01:44:39;;;;;;;16.10;10.02;;;5.20;60.40;;;;;;5052701;28;20048;-76
2022/03/10 01:47:10;;;;;;;17.95;11.73;;;5.10;60.60;;;;;;5035934;28;20041;-76
2022/03/10 01:49:36;;;;;;;17.13;10.75;;;5.10;61.00;;;;;;5052602;28;20041;-76
2022/03/10 01:52:03;;;;;;;18.58;10.35;;;5.10;60.80;;;;;;5052728;28;20040;-76
2022/03/10 01:54:30;;;;;;;15.77;11.02;;;5.00;60.70;;;;;;5035882;28;20050;-76
2022/03/10 01:56:55;;;;;;;14.73;11.05;;;5.00;60.80;;;;;;5036100;28;20400;-76
2022/03/10 01:59:21;;;;;;;15.65;10.35;;;5.00;61.30;;;;;;5052414;28;20123;-76
2022/03/10 02:01:47;;;;;;;16.92;11.10;;;4.90;62.00;;;;;;5052268;28;20102;-76
2022/03/10 02:04:13;;;;;;;17.27;11.18;;;4.90;62.00;;;;;;5052297;28;20048;-76
2022/03/10 02:06:39;;;;;;;16.98;10.88;;;4.90;62.00;;;;;;5035582;28;20128;-76
2022/03/10 02:11:50;;;;;;;18.45;10.85;;;4.90;62.10;;;;;;5052072;28;20041;-76
2022/03/10 02:19:44;;;;;;;15.50;10.90;;;4.80;62.50;;;;;;5052157;28;20049;-76
2022/03/10 02:22:11;;;;;;;18.83;11.57;;;4.80;62.20;;;;;;5051964;28;20067;-76
2022/03/10 02:24:39;;;;;;;16.50;11.18;;;4.80;62.30;;;;;;5051879;28;20055;-76
2022/03/10 02:27:21;;;;;;;19.02;10.82;;;4.80;62.20;;;;;;5051889;28;20094;-76
2022/03/10 02:29:57;;;;;;;14.82;10.27;;;4.80;62.40;;;;;;5051966;28;20051;-76
2022/03/10 02:32:23;;;;;;;17.90;11.75;;;4.80;63.30;;;;;;5051935;28;20400;-76
2022/03/10 02:34:49;;;;;;;16.33;11.60;;;4.80;62.70;;;;;;5052169;28;20106;-76
2022/03/10 02:37:15;;;;;;;17.42;11.18;;;4.80;62.40;;;;;;5035277;28;20040;-76
2022/03/10 02:39:43;;;;;;;14.77;10.73;;;4.80;63.00;;;;;;5051842;28;20040;-76
2022/03/10 02:42:09;;;;;;;16.45;10.57;;;4.70;62.50;;;;;;5052269;28;20543;-76
2022/03/10 02:44:48;;;;;;;18.40;11.20;;;4.70;63.00;;;;;;5035645;28;20045;-76
2022/03/10 02:47:14;;;;;;;16.17;10.95;;;4.70;63.30;;;;;;5051831;28;20041;-76
2022/03/10 02:49:41;;;;;;;18.77;10.90;;;4.70;63.50;;;;;;5035142;28;20127;-76
2022/03/10 02:52:08;;;;;;;17.42;10.88;;;4.60;63.40;;;;;;5051640;28;20083;-76
2022/03/10 02:54:34;;;;;;;16.55;10.75;;;4.70;63.40;;;;;;5035086;28;20543;-76
2022/03/10 02:56:59;;;;;;;15.63;11.30;;;4.60;63.80;;;;;;5051697;28;20044;-76
2022/03/10 02:59:25;;;;;;;16.60;11.38;;;4.60;64.40;;;;;;5051640;28;20044;-76
2022/03/10 03:01:51;;;;;;;15.02;10.60;;;4.60;64.20;;;;;;5035204;28;20047;-76
2022/03/10 03:04:17;;;;;;;15.80;11.30;;;4.60;64.90;;;;;;5051630;28;20490;-76
2022/03/10 03:06:42;;;;;;;19.00;11.43;;;4.60;64.30;;;;;;5051514;28;20114;-76
2022/03/10 03:09:08;;;;;;;15.45;10.40;;;4.50;65.10;;;;;;5051820;28;20123;-76
2022/03/10 03:11:34;;;;;;;16.55;10.88;;;4.50;64.90;;;;;;5051385;28;20454;-76
2022/03/10 03:14:01;;;;;;;17.60;11.20;;;4.50;65.30;;;;;;5035182;28;20041;-76
2022/03/10 03:16:28;;;;;;;15.38;11.02;;;4.50;64.80;;;;;;5051512;28;20048;-76
2022/03/10 03:18:54;;;;;;;19.70;11.45;;;4.50;65.00;;;;;;5051468;28;20047;-76
2022/03/10 03:21:20;;;;;;;16.83;11.52;;;4.50;65.40;;;;;;5051424;28;20045;-76
2022/03/10 03:23:46;;;;;;;17.70;11.05;;;4.50;65.40;;;;;;5051416;28;20037;-76
2022/03/10 03:26:12;;;;;;;16.42;10.82;;;4.50;64.80;;;;;;5051378;28;20033;-76
2022/03/10 03:28:38;;;;;;;16.48;10.85;;;4.50;64.00;;;;;;5051662;28;20036;-76
2022/03/10 03:31:04;;;;;;;16.23;11.07;;;4.50;64.00;;;;;;5051306;28;20498;-76
2022/03/10 03:33:30;;;;;;;14.15;10.65;;;4.50;64.20;;;;;;5034741;28;20448;-77
2022/03/10 03:35:56;;;;;;;15.80;11.20;;;4.50;64.10;;;;;;5053134;28;20464;-77
2022/03/10 03:38:21;;;;;;;15.52;10.93;;;4.50;63.90;;;;;;5055413;28;20120;-77
2022/03/10 03:40:47;;;;;;;15.75;11.20;;;4.50;64.20;;;;;;5055006;28;20123;-77
2022/03/10 03:43:13;;;;;;;18.90;10.43;;;4.50;64.00;;;;;;5055043;28;20116;-77
2022/03/10 03:45:38;;;;;;;14.95;10.68;;;4.50;64.10;;;;;;5054947;28;20127;-77
2022/03/10 03:48:04;;;;;;;15.75;10.30;;;4.50;63.70;;;;;;5054877;28;20120;-77
2022/03/10 03:50:30;;;;;;;15.20;10.88;;;4.50;64.10;;;;;;5054849;28;20044;-77
2022/03/10 03:52:56;;;;;;;17.70;11.50;;;4.50;63.50;;;;;;5054736;28;20099;-77
2022/03/10 03:55:21;;;;;;;14.88;10.98;;;4.50;63.60;;;;;;5054823;28;20044;-77
2022/03/10 03:57:47;;;;;;;16.58;11.00;;;4.40;63.60;;;;;;5055048;28;20044;-77
2022/03/10 04:00:15;;;;;;;17.70;9.90;;;4.40;63.60;;;;;;5055055;28;20520;-77
2022/03/10 04:02:42;;;;;;;16.90;10.93;;;4.30;64.30;;;;;;5054589;28;20055;-77
2022/03/10 04:05:08;;;;;;;14.00;9.95;;;4.40;64.20;;;;;;5054633;28;20126;-76
2022/03/10 04:07:34;;;;;;;15.63;10.15;;;4.30;64.40;;;;;;5037854;28;20091;-77
2022/03/10 04:10:00;;;;;;;15.15;10.60;;;4.30;64.50;;;;;;5054488;28;20048;-77
2022/03/10 04:12:26;;;;;;;13.05;10.02;;;4.30;64.40;;;;;;5054580;28;20041;-77
2022/03/10 04:14:51;;;;;;;16.83;11.38;;;4.20;64.40;;;;;;5054377;28;20440;-77
2022/03/10 04:17:17;;;;;;;14.57;9.98;;;4.20;64.70;;;;;;5054343;28;20095;-77
2022/03/10 04:19:42;;;;;;;14.23;9.95;;;4.20;65.00;;;;;;5054318;28;20084;-77
2022/03/10 04:22:08;;;;;;;14.63;10.30;;;4.20;64.90;;;;;;5054233;28;20073;-76
2022/03/10 04:24:34;;;;;;;20.58;10.90;;;4.20;64.40;;;;;;5054237;28;20048;-76
2022/03/10 04:27:00;;;;;;;15.93;10.07;;;4.20;64.20;;;;;;5054261;28;20131;-76
2022/03/10 04:29:25;;;;;;;15.95;10.05;;;4.20;64.80;;;;;;5054376;28;20493;-76
2022/03/10 04:31:51;;;;;;;13.73;9.60;;;4.10;65.40;;;;;;5037727;28;20402;-76
2022/03/10 04:34:17;;;;;;;19.23;9.80;;;4.10;66.20;;;;;;5054326;28;20478;-76
2022/03/10 04:36:42;;;;;;;12.63;9.82;;;4.10;65.00;;;;;;5053957;28;20457;-76
2022/03/10 04:39:08;;;;;;;18.02;11.57;;;4.10;64.70;;;;;;5053966;28;20127;-76
2022/03/10 04:41:34;;;;;;;14.95;9.45;;;4.00;64.80;;;;;;5053874;28;20045;-76
2022/03/10 04:44:00;;;;;;;14.63;10.27;;;4.10;64.70;;;;;;5053901;28;20037;-76
2022/03/10 04:46:26;;;;;;;13.85;10.20;;;4.00;64.30;;;;;;5053465;28;20080;-76
2022/03/10 04:48:51;;;;;;;15.88;10.75;;;4.00;64.50;;;;;;5054062;28;20130;-76
2022/03/10 04:51:17;;;;;;;14.20;9.75;;;4.00;64.90;;;;;;5037365;28;20513;-76
2022/03/10 04:53:43;;;;;;;18.70;10.02;;;4.00;64.90;;;;;;5053927;28;20576;-76
2022/03/10 04:56:08;;;;;;;15.38;10.55;;;4.00;65.80;;;;;;5053683;28;20567;-76
2022/03/10 04:58:34;;;;;;;14.63;10.15;;;3.90;65.60;;;;;;5037587;28;20069;-76
2022/03/10 05:00:59;;;;;;;15.55;10.85;;;4.00;65.40;;;;;;5053491;28;20058;-76
2022/03/10 05:03:25;;;;;;;16.50;10.00;;;3.90;65.80;;;;;;5053493;28;20049;-76
2022/03/10 05:05:50;;;;;;;15.70;10.30;;;3.90;66.00;;;;;;5053439;28;20090;-76
2022/03/10 05:08:16;;;;;;;13.88;10.02;;;3.90;66.20;;;;;;5053336;28;20124;-76
2022/03/10 05:10:41;;;;;;;16.02;10.85;;;3.90;67.00;;;;;;5053201;28;20127;-77
2022/03/10 05:13:07;;;;;;;13.52;9.80;;;3.80;66.60;;;;;;5020338;28;20124;-77
2022/03/10 05:15:33;;;;;;;16.50;10.50;;;3.90;67.00;;;;;;5036740;28;20037;-77
2022/03/10 05:18:01;;;;;;;12.93;9.63;;;3.90;66.60;;;;;;5036858;28;20047;-77
2022/03/10 05:20:28;;;;;;;16.80;9.68;;;3.90;66.80;;;;;;5020081;28;20041;-77
2022/03/10 05:22:56;;;;;;;14.55;9.98;;;3.90;66.60;;;;;;5036481;28;20111;-77
2022/03/10 05:25:23;;;;;;;18.25;9.95;;;3.80;67.00;;;;;;5036711;28;20045;-76
2022/03/10 05:27:50;;;;;;;17.20;11.25;;;3.80;66.70;;;;;;5036381;28;20128;-76
2022/03/10 05:30:17;;;;;;;18.73;10.32;;;3.80;67.30;;;;;;5036880;28;20045;-76
2022/03/10 05:32:43;;;;;;;15.75;10.23;;;3.70;68.10;;;;;;5036254;28;20121;-76
2022/03/10 05:35:10;;;;;;;15.02;10.25;;;3.70;68.30;;;;;;5036246;28;20041;-76
2022/03/10 05:37:37;;;;;;;16.40;10.18;;;3.80;68.20;;;;;;5036232;28;20472;-76
2022/03/10 05:40:10;;;;;;;14.95;9.95;;;3.80;67.60;;;;;;5019710;28;20123;-76
2022/03/10 05:42:41;;;;;;;17.02;10.80;;;3.80;67.40;;;;;;5036055;28;20417;-76
2022/03/10 05:45:07;;;;;;;17.98;10.63;;;3.70;67.60;;;;;;5036070;28;20106;-75
2022/03/10 05:47:34;;;;;;;16.13;10.15;;;3.70;68.40;;;;;;5036239;28;20436;-76
2022/03/10 05:50:01;;;;;;;13.43;10.05;;;3.70;69.10;;;;;;5036042;28;20174;-76
2022/03/10 05:52:27;;;;;;;14.00;10.27;;;3.70;68.90;;;;;;5035875;28;20406;-76
2022/03/10 05:54:52;;;;;;;14.98;10.75;;;3.70;70.00;;;;;;5035923;28;20032;-76
2022/03/10 05:57:18;;;;;;;15.13;9.93;;;3.70;69.90;;;;;;5035964;28;20036;-76
2022/03/10 05:59:44;;;;;;;15.43;10.65;;;3.70;71.00;;;;;;5035656;28;20497;-76
2022/03/10 06:02:09;;;;;;;17.35;11.05;;;3.60;71.30;;;;;;5035761;28;20175;-76
2022/03/10 06:04:35;;;;;;;17.65;10.98;;;3.60;71.90;;;;;;5019534;28;20045;-76
2022/03/10 06:07:00;;;;;;;16.42;10.50;;;3.70;71.50;;;;;;5035622;28;20124;-76
2022/03/10 06:09:26;;;;;;;14.68;10.82;;;3.70;71.90;;;;;;5036749;28;20118;-76
2022/03/10 06:11:51;;;;;;;15.40;10.95;;;3.70;72.00;;;;;;5042485;28;20405;-76
2022/03/10 06:14:18;;;;;;;16.65;11.70;;;3.60;72.50;;;;;;5052229;28;20048;-76
2022/03/10 06:16:44;;;;;;;17.27;11.38;;;3.70;72.20;;;;;;5052461;28;20033;-76
2022/03/10 06:19:10;;;;;;;15.43;10.68;;;3.70;73.20;;;;;;5052942;28;20068;-76
2022/03/10 06:21:37;;;;;;;18.30;10.73;;;3.70;72.90;;;;;;5052287;28;20413;-76
2022/03/10 06:24:03;;;;;;;17.02;10.77;;;3.70;72.10;;;;;;5052042;28;20422;-76
2022/03/10 06:26:28;;;;;;;15.90;10.95;;;3.70;72.10;;;;;;5052197;28;20033;-76
2022/03/10 06:28:54;;;;;;;15.73;10.60;;;3.70;73.00;;;;;;5051964;28;20452;-76
2022/03/10 06:31:19;;;;;;;16.85;10.93;;;3.80;72.40;;;;;;5052066;28;20035;-76
2022/03/10 06:33:45;;;;;;;16.88;11.00;;;3.80;72.30;;;;;;5035319;28;20547;-75
2022/03/10 06:36:11;;;;;;;18.17;12.60;;;3.80;72.10;;;;;;5052189;28;20041;-76
2022/03/10 06:38:37;;;;;;;17.15;10.45;;;3.80;72.10;;;;;;5051898;28;20048;-76
2022/03/10 06:41:03;;;;;;;15.68;10.43;;;3.80;71.60;;;;;;5035275;28;20029;-76
2022/03/10 06:43:29;;;;;;;23.90;11.32;;;3.90;71.40;;;;;;5051896;28;20052;-76
2022/03/10 06:45:54;;;;;;;18.77;11.80;;;3.90;71.70;;;;;;5052065;28;20209;-76
2022/03/10 06:48:20;;;;;;;17.25;11.05;;;3.90;71.80;;;;;;5051707;28;20499;-76
2022/03/10 06:50:46;;;;;;;17.42;10.90;;;3.90;71.40;;;;;;5051649;28;20141;-76
2022/03/10 06:53:13;;;;;;;18.52;11.35;;;3.90;72.50;;;;;;5052035;28;20044;-76
2022/03/10 06:55:38;;;;;;;14.77;10.50;;;4.00;72.20;;;;;;5051692;28;20087;-76
2022/03/10 06:58:04;;;;;;;18.75;12.10;;;4.00;71.80;;;;;;5051690;28;20045;-76
2022/03/10 07:00:30;;;;;;;17.67;10.90;;;4.00;71.30;;;;;;5052248;28;20040;-76
2022/03/10 07:02:56;;;;;;;16.08;11.27;;;4.00;71.40;;;;;;5034900;28;20048;-76
2022/03/10 07:05:22;;;;;;;19.92;11.38;;;4.10;71.70;;;;;;5035065;28;20040;-76
2022/03/10 07:07:48;;;;;;;17.17;11.52;;;4.10;71.60;;;;;;5051548;28;20045;-76
2022/03/10 07:10:13;;;;;;;16.90;10.38;;;4.20;72.00;;;;;;5037698;28;20091;-76
2022/03/10 07:12:40;;;;;;;16.15;10.75;;;4.20;71.60;;;;;;5055445;28;20041;-76
2022/03/10 07:15:10;;;;;;;19.58;10.77;;;4.20;71.40;;;;;;5055540;28;20505;-76
2022/03/10 07:17:37;;;;;;;16.60;10.68;;;4.30;71.40;;;;;;5055501;28;20524;-76
2022/03/10 07:20:03;;;;;;;17.17;10.57;;;4.30;70.90;;;;;;5055453;28;20076;-76
2022/03/10 07:22:29;;;;;;;17.27;11.25;;;4.40;71.00;;;;;;5038695;28;20087;-76
2022/03/10 07:24:55;;;;;;;19.65;12.15;;;4.40;70.90;;;;;;5055873;28;20032;-76
2022/03/10 07:27:20;;;;;;;19.80;11.23;;;4.50;71.00;;;;;;5055288;28;20124;-76
2022/03/10 07:29:46;;;;;;;17.50;10.70;;;4.50;71.00;;;;;;5055252;28;20079;-75
2022/03/10 07:32:11;;;;;;;16.52;10.60;;;4.60;70.80;;;;;;5055461;28;20033;-75
2022/03/10 07:34:37;;;;;;;14.95;10.93;;;4.60;70.90;;;;;;5038844;28;20040;-76
2022/03/10 07:37:02;;;;;;;20.65;10.77;;;4.70;70.60;;;;;;5055438;28;20558;-75
2022/03/10 07:39:28;;;;;;;17.73;10.75;;;4.80;71.20;;;;;;5055174;28;20523;-76
2022/03/10 07:41:54;;;;;;;19.63;11.88;;;4.80;71.00;;;;;;5054997;28;20138;-76
2022/03/10 07:44:19;;;;;;;17.98;11.07;;;4.90;70.60;;;;;;5054993;28;20053;-76
2022/03/10 07:46:45;;;;;;;15.60;10.45;;;5.00;70.40;;;;;;5054888;28;20059;-76
2022/03/10 07:49:11;;;;;;;15.05;10.93;;;5.00;70.20;;;;;;5055538;28;20036;-76
2022/03/10 07:51:37;;;;;;;15.88;10.98;;;5.10;70.50;;;;;;5055292;28;20044;-76
2022/03/10 07:54:03;;;;;;;14.52;10.93;;;5.10;70.20;;;;;;5038917;28;20033;-76
2022/03/10 07:56:28;;;;;;;17.92;11.40;;;5.20;70.30;;;;;;5054940;28;20463;-76
2022/03/10 07:58:54;;;;;;;15.55;10.57;;;5.30;70.40;;;;;;5054728;28;20068;-76
2022/03/10 08:01:19;;;;;;;18.05;11.15;;;5.40;70.40;;;;;;5054621;28;20048;-76
2022/03/10 08:03:48;;;;;;;19.95;11.25;;;5.40;70.40;;;;;;5054894;28;20045;-76
2022/03/10 08:06:14;;;;;;;16.45;11.07;;;5.50;70.90;;;;;;5054531;28;20048;-76
2022/03/10 08:08:39;;;;;;;14.70;11.27;;;5.50;70.50;;;;;;5038476;28;20033;-75
2022/03/10 08:11:06;;;;;;;14.35;10.45;;;5.60;70.20;;;;;;5054327;28;20036;-76
2022/03/10 08:13:32;;;;;;;14.75;11.20;;;5.70;70.50;;;;;;5055016;28;20029;-76
2022/03/10 08:15:58;;;;;;;17.17;10.95;;;5.80;70.40;;;;;;5054937;28;20105;-76
2022/03/10 08:18:24;;;;;;;14.55;10.90;;;5.90;69.40;;;;;;5054451;28;20119;-76
2022/03/10 08:20:50;;;;;;;17.60;11.60;;;6.00;68.90;;;;;;5053816;28;20128;-76
2022/03/10 08:23:18;;;;;;;14.85;10.68;;;6.10;68.50;;;;;;5054269;28;20044;-76
2022/03/10 08:25:44;;;;;;;16.08;11.32;;;6.20;68.90;;;;;;5054280;28;20077;-76
2022/03/10 08:28:10;;;;;;;18.17;11.38;;;6.30;68.60;;;;;;5054125;28;20079;-76
2022/03/10 08:30:37;;;;;;;15.60;11.10;;;6.80;67.40;;;;;;5054147;28;20037;-76
2022/03/10 08:33:03;;;;;;;16.85;11.25;;;8.10;61.90;;;;;;5054205;28;20033;-76
2022/03/10 08:35:28;;;;;;;16.52;10.88;;;9.70;56.60;;;;;;5054294;28;20078;-76
2022/03/10 08:37:54;;;;;;;16.48;11.10;;;11.10;52.90;;;;;;5054094;28;20417;-76
2022/03/10 08:40:20;;;;;;;16.63;11.45;;;12.40;49.70;;;;;;5053970;28;20037;-76
2022/03/10 08:42:50;;;;;;;17.30;11.48;;;13.30;46.60;;;;;;5053826;28;20045;-76
2022/03/10 08:45:16;;;;;;;18.83;11.30;;;14.10;44.90;;;;;;5053878;28;20041;-77
2022/03/10 08:47:42;;;;;;;15.98;11.20;;;14.90;43.60;;;;;;5053789;28;20052;-77
2022/03/10 08:50:09;;;;;;;18.17;11.18;;;15.50;42.40;;;;;;5053755;28;20044;-76
2022/03/10 08:52:35;;;;;;;16.52;12.23;;;15.90;41.20;;;;;;5053719;28;20402;-77
2022/03/10 08:55:01;;;;;;;18.33;10.90;;;16.40;40.70;;;;;;5053753;28;20071;-77
2022/03/10 08:57:27;;;;;;;15.77;10.95;;;16.80;39.80;;;;;;5053733;28;20041;-74
2022/03/10 08:59:52;;;;;;;18.88;11.38;;;17.30;39.50;;;;;;5053651;28;20095;-74
2022/03/10 09:02:18;;;;;;;19.20;11.18;;;17.60;38.70;;;;;;5053458;28;20041;-74
2022/03/10 09:04:44;;;;;;;14.93;11.10;;;18.00;37.90;;;;;;5053633;28;20124;-76
2022/03/10 09:07:10;;;;;;;13.85;11.32;;;18.20;37.80;;;;;;5053512;28;20075;-74
2022/03/10 09:09:35;;;;;;;14.80;11.27;;;18.40;37.10;;;;;;5053413;28;20065;-73
2022/03/10 09:12:01;;;;;;;13.68;10.25;;;18.70;37.10;;;;;;5053135;28;20142;-74
2022/03/10 09:14:27;;;;;;;17.00;11.35;;;19.00;36.10;;;;;;5053351;28;20073;-73
2022/03/10 09:16:52;;;;;;;14.60;10.63;;;19.30;36.00;;;;;;5053277;28;20040;-73
2022/03/10 09:19:18;;;;;;;17.77;11.07;;;19.60;35.80;;;;;;5053423;28;20049;-73
2022/03/10 09:21:44;;;;;;;15.73;11.32;;;19.90;35.30;;;;;;5053061;28;20040;-74
2022/03/10 09:24:10;;;;;;;16.58;11.25;;;20.10;34.90;;;;;;5053166;28;20044;-73
2022/03/10 09:26:38;;;;;;;14.45;11.15;;;20.30;34.20;;;;;;5053213;28;20063;-73
2022/03/10 09:29:04;;;;;;;14.25;11.38;;;20.30;34.20;;;;;;5053044;28;20045;-73
2022/03/10 09:31:30;;;;;;;13.80;10.93;;;20.40;34.40;;;;;;5053145;28;20064;-73
2022/03/10 09:33:55;;;;;;;14.63;11.07;;;20.60;34.00;;;;;;5051978;28;20045;-73
2022/03/10 09:36:21;;;;;;;15.13;11.18;;;20.70;33.50;;;;;;5036327;28;20041;-73
2022/03/10 09:38:46;;;;;;;13.35;10.35;;;20.60;32.90;;;;;;5052892;28;20037;-73
2022/03/10 09:41:12;;;;;;;14.23;11.43;;;20.60;33.10;;;;;;5052746;28;20032;-73
2022/03/10 09:43:39;;;;;;;15.18;11.50;;;20.70;32.70;;;;;;5052764;28;20041;-73
2022/03/10 09:46:08;;;;;;;13.63;11.80;;;20.70;32.50;;;;;;5052883;28;20512;-73
2022/03/10 09:48:35;;;;;;;16.63;10.82;;;21.00;32.80;;;;;;5052709;28;20049;-73
2022/03/10 09:51:01;;;;;;;18.33;10.85;;;21.20;32.30;;;;;;5052861;28;20079;-73
2022/03/10 09:53:27;;;;;;;14.35;11.00;;;21.40;32.10;;;;;;5052576;28;20041;-73
2022/03/10 09:55:54;;;;;;;13.50;10.75;;;21.50;31.90;;;;;;5052549;28;20045;-73
2022/03/10 09:58:19;;;;;;;14.57;11.27;;;21.70;32.10;;;;;;5035897;28;20076;-73
2022/03/10 10:00:45;;;;;;;14.25;10.75;;;21.80;32.10;;;;;;5035872;28;20086;-73
2022/03/10 10:03:11;;;;;;;15.18;11.60;;;21.90;31.50;;;;;;5052406;28;20045;-73
2022/03/10 10:05:40;;;;;;;15.50;11.50;;;21.70;31.50;;;;;;5052384;28;20044;-73
2022/03/10 10:08:17;;;;;;;19.27;12.02;;;21.70;31.10;;;;;;5052273;28;20041;-73
2022/03/10 10:10:45;;;;;;;15.55;11.52;;;21.60;30.70;;;;;;5035494;28;20493;-73
2022/03/10 10:13:24;;;;;;;16.17;11.88;;;21.80;30.50;;;;;;5035888;28;20119;-73
2022/03/10 10:16:03;;;;;;;13.85;11.63;;;22.10;30.30;;;;;;5035600;28;20086;-73
2022/03/10 10:18:30;;;;;;;18.27;11.65;;;22.30;29.90;;;;;;5035578;28;20037;-75
2022/03/10 10:20:56;;;;;;;18.85;12.48;;;22.50;29.80;;;;;;5035430;28;20394;-74
2022/03/10 10:23:33;;;;;;;17.27;11.80;;;22.60;29.30;;;;;;5035760;28;20049;-74
2022/03/10 10:26:04;;;;;;;16.33;12.52;;;22.40;29.60;;;;;;5035551;28;20520;-74
2022/03/10 10:28:37;;;;;;;16.10;11.90;;;22.60;29.60;;;;;;5035311;28;20041;-74
2022/03/10 10:31:05;;;;;;;16.15;12.18;;;22.50;29.70;;;;;;5035312;28;20029;-74
2022/03/10 10:33:34;;;;;;;14.77;12.07;;;22.10;29.80;;;;;;5035577;28;20058;-74
2022/03/10 10:36:16;;;;;;;15.52;12.32;;;21.80;29.90;;;;;;5035275;28;20481;-74
2022/03/10 10:38:44;;;;;;;18.30;12.65;;;21.70;29.90;;;;;;5035266;28;20105;-74
2022/03/10 10:41:28;;;;;;;20.80;13.38;;;21.70;30.10;;;;;;5035137;28;20041;-74
2022/03/10 10:43:59;;;;;;;16.27;11.55;;;21.30;30.60;;;;;;5034930;28;20484;-74
2022/03/10 10:46:42;;;;;;;17.08;13.02;;;20.90;31.10;;;;;;5035340;28;20044;-74
2022/03/10 10:49:11;;;;;;;15.27;12.05;;;20.60;31.20;;;;;;5035236;28;20059;-74
2022/03/10 10:51:39;;;;;;;18.45;12.90;;;20.50;31.50;;;;;;5035029;28;20048;-75
2022/03/10 10:54:31;;;;;;;15.95;12.85;;;20.30;32.10;;;;;;5035105;28;20052;-75
2022/03/10 10:57:01;;;;;;;16.52;12.77;;;20.20;31.90;;;;;;5035077;28;20068;-75
2022/03/10 10:59:40;;;;;;;15.80;12.68;;;20.00;32.60;;;;;;5018784;28;20111;-74
2022/03/10 11:02:21;;;;;;;19.25;13.30;;;20.10;32.80;;;;;;5035271;28;20202;-74
2022/03/10 11:04:51;;;;;;;15.50;12.95;;;20.00;33.60;;;;;;5035333;28;20036;-74
2022/03/10 11:07:19;;;;;;;18.48;13.65;;;19.90;33.30;;;;;;5034886;28;20493;-74
2022/03/10 11:09:46;;;;;;;15.27;12.32;;;19.60;33.50;;;;;;5035218;28;20037;-74
2022/03/10 11:12:14;;;;;;;17.05;14.10;;;19.70;34.20;;;;;;5028071;28;20033;-74
2022/03/10 11:14:41;;;;;;;17.90;13.70;;;19.80;34.20;;;;;;5051825;28;20033;-74
2022/03/10 11:17:08;;;;;;;19.40;13.85;;;19.30;33.50;;;;;;5051525;28;20080;-74
2022/03/10 11:19:41;;;;;;;20.45;14.93;;;19.00;34.60;;;;;;5051734;28;20041;-74
2022/03/10 11:22:12;;;;;;;17.42;13.25;;;18.80;35.10;;;;;;5051715;28;20072;-74
2022/03/10 11:24:58;;;;;;;18.48;14.07;;;18.80;35.10;;;;;;5051767;28;20083;-74
2022/03/10 11:27:33;;;;;;;19.38;14.00;;;18.80;35.10;;;;;;5021428;28;20063;-74
2022/03/10 11:30:01;;;;;;;16.73;13.63;;;18.60;35.10;;;;;;5051791;28;20108;-74
2022/03/10 11:32:28;;;;;;;17.23;13.63;;;18.80;35.20;;;;;;5051222;28;20076;-75
2022/03/10 11:35:00;;;;;;;21.73;13.57;;;19.00;35.00;;;;;;5051349;28;20049;-74
2022/03/10 11:37:40;;;;;;;21.55;15.02;;;19.30;35.50;;;;;;5051489;28;20082;-74
2022/03/10 11:40:12;;;;;;;17.98;14.27;;;19.30;34.10;;;;;;5051210;28;20048;-74
2022/03/10 11:42:38;;;;;;;20.13;13.98;;;19.50;34.30;;;;;;5051248;28;20083;-74
2022/03/10 11:45:17;;;;;;;21.23;14.38;;;19.60;34.20;;;;;;5051289;28;20086;-73
2022/03/10 11:47:44;;;;;;;19.67;15.45;;;19.90;33.50;;;;;;5051188;28;20041;-73
2022/03/10 11:50:22;;;;;;;22.00;14.82;;;20.10;33.40;;;;;;5051183;28;20079;-75
2022/03/10 11:53:04;;;;;;;16.48;13.27;;;19.90;33.20;;;;;;5051139;28;20033;-75
2022/03/10 11:55:51;;;;;;;19.70;13.88;;;20.10;33.70;;;;;;5034558;28;20044;-75
2022/03/10 11:58:30;;;;;;;16.73;13.63;;;20.20;32.80;;;;;;5054944;28;20041;-75
2022/03/10 12:00:59;;;;;;;18.63;14.63;;;20.40;33.30;;;;;;5054999;28;20041;-75
2022/03/10 12:03:25;;;;;;;19.30;13.55;;;20.30;32.50;;;;;;5054951;28;20036;-75
2022/03/10 12:05:59;;;;;;;16.58;13.73;;;20.10;33.50;;;;;;5038344;28;20520;-75
2022/03/10 12:08:30;;;;;;;18.30;14.57;;;20.10;33.10;;;;;;5038027;28;20092;-74
2022/03/10 12:10:57;;;;;;;25.38;14.30;;;20.00;33.40;;;;;;5054677;28;20116;-74
2022/03/10 12:13:44;;;;;;;19.58;14.98;;;20.20;33.80;;;;;;5037839;28;20040;-74
2022/03/10 12:16:26;;;;;;;17.83;13.77;;;20.40;32.80;;;;;;5037942;28;20052;-74
2022/03/10 12:18:52;;;;;;;18.43;14.87;;;20.70;32.50;;;;;;5038095;28;20048;-74
2022/03/10 12:21:25;;;;;;;20.33;14.38;;;20.60;32.70;;;;;;5037620;28;20397;-74
2022/03/10 12:24:04;;;;;;;20.10;15.07;;;20.70;33.10;;;;;;5037638;28;20033;-74
2022/03/10 12:26:33;;;;;;;20.25;15.82;;;20.90;32.90;;;;;;5021055;28;20166;-74
2022/03/10 12:29:08;;;;;;;20.88;15.65;;;21.10;32.40;;;;;;5037562;28;20040;-74
2022/03/10 12:31:35;;;;;;;19.42;14.73;;;21.20;31.80;;;;;;5037790;28;20072;-75
2022/03/10 12:34:05;;;;;;;17.58;14.35;;;21.10;31.50;;;;;;5037564;28;20036;-74
2022/03/10 12:36:36;;;;;;;19.05;14.82;;;21.30;31.70;;;;;;5037568;28;20045;-74
2022/03/10 12:39:13;;;;;;;19.10;14.68;;;21.20;31.70;;;;;;5037371;28;20037;-74
2022/03/10 12:41:42;;;;;;;17.27;13.88;;;21.10;31.30;;;;;;5037311;28;20536;-74
2022/03/10 12:44:09;;;;;;;16.70;14.60;;;21.00;31.50;;;;;;5037305;28;20080;-74